createdAt,value
2022-09-23T00:00:40.839Z,1.27
2022-09-23T00:03:31.081Z,0.85
2022-09-23T00:06:19.766Z,0.98
2022-09-23T00:09:06.982Z,0.80
2022-09-23T00:11:54.095Z,0.63
2022-09-23T00:14:41.563Z,0.90
2022-09-23T00:17:28.924Z,0.77
2022-09-23T00:20:17.637Z,0.82
2022-09-23T00:23:05.269Z,0.60
2022-09-23T00:25:57.685Z,0.90
2022-09-23T00:28:45.923Z,1.08
2022-09-23T00:31:33.535Z,0.90
2022-09-23T00:34:21.999Z,0.70
2022-09-23T00:37:10.738Z,0.80
2022-09-23T00:40:00.488Z,0.95
2022-09-23T00:42:48.885Z,0.70
2022-09-23T00:45:36.601Z,1.10
2022-09-23T00:48:24.114Z,0.70
2022-09-23T00:51:13.586Z,0.60
2022-09-23T00:54:02.726Z,0.83
2022-09-23T00:56:50.112Z,0.85
2022-09-23T00:59:37.723Z,0.65
2022-09-23T01:02:24.856Z,0.88
2022-09-23T01:05:12.058Z,0.80
2022-09-23T01:07:59.742Z,1.00
2022-09-23T01:10:54.201Z,0.75
2022-09-23T01:13:50.019Z,0.90
2022-09-23T01:16:41.226Z,0.77
2022-09-23T01:19:47.453Z,0.90
2022-09-23T01:22:37.797Z,0.63
2022-09-23T01:25:31.609Z,0.70
2022-09-23T01:28:33.315Z,0.70
2022-09-23T01:31:24.826Z,0.82
2022-09-23T01:34:15.234Z,0.68
2022-09-23T01:37:06.649Z,0.70
2022-09-23T01:40:01.771Z,0.73
2022-09-23T01:42:53.078Z,1.00
2022-09-23T01:45:44.188Z,0.80
2022-09-23T01:48:35.990Z,0.80
2022-09-23T01:51:25.800Z,1.00
2022-09-23T01:54:15.891Z,0.70
2022-09-23T01:57:05.585Z,1.00
2022-09-23T01:59:54.715Z,0.80
2022-09-23T02:02:49.865Z,0.63
2022-09-23T02:05:43.218Z,0.57
2022-09-23T02:08:34.704Z,1.02
2022-09-23T02:11:22.132Z,1.00
2022-09-23T02:14:14.749Z,0.80
2022-09-23T02:17:03.357Z,0.83
2022-09-23T02:19:55.071Z,0.57
2022-09-23T02:22:49.475Z,0.68
2022-09-23T02:25:39.463Z,0.70
2022-09-23T02:28:28.925Z,0.82
2022-09-23T02:31:23.913Z,1.00
2022-09-23T02:34:17.439Z,0.80
2022-09-23T02:37:09.636Z,0.70
2022-09-23T02:40:00.856Z,0.90
2022-09-23T02:42:53.830Z,0.82
2022-09-23T02:45:41.212Z,0.90
2022-09-23T02:48:29.741Z,0.70
2022-09-23T02:51:17.074Z,0.80
2022-09-23T02:54:07.284Z,0.77
2022-09-23T02:56:57.429Z,0.63
2022-09-23T02:59:46.760Z,1.00
2022-09-23T03:02:56.008Z,0.70
2022-09-23T03:05:47.782Z,0.80
2022-09-23T03:08:40.325Z,0.60
2022-09-23T03:11:28.197Z,0.97
2022-09-23T03:14:22.158Z,0.60
2022-09-23T03:17:12.634Z,0.80
2022-09-23T03:20:02.017Z,0.80
2022-09-23T03:22:53.757Z,1.15
2022-09-23T03:25:43.203Z,1.02
2022-09-23T03:28:31.178Z,0.65
2022-09-23T03:31:19.986Z,0.98
2022-09-23T03:34:09.575Z,0.85
2022-09-23T03:37:01.381Z,0.77
2022-09-23T03:39:52.756Z,0.80
2022-09-23T03:42:40.583Z,0.77
2022-09-23T03:45:29.380Z,0.80
2022-09-23T03:48:18.076Z,0.77
2022-09-23T03:51:10.395Z,0.70
2022-09-23T03:53:57.678Z,0.83
2022-09-23T03:56:45.189Z,1.30
2022-09-23T03:59:34.258Z,0.75
2022-09-23T04:02:24.221Z,0.90
2022-09-23T04:05:13.408Z,0.90
2022-09-23T04:08:00.395Z,0.60
2022-09-23T04:10:49.790Z,0.88
2022-09-23T04:13:39.018Z,0.80
2022-09-23T04:16:26.180Z,1.40
2022-09-23T04:19:13.936Z,1.00
2022-09-23T04:22:02.955Z,1.17
2022-09-23T04:24:50.231Z,0.93
2022-09-23T04:27:38.052Z,0.77
2022-09-23T04:30:25.362Z,0.93
2022-09-23T04:33:12.856Z,1.02
2022-09-23T04:36:00.405Z,0.75
2022-09-23T04:38:49.568Z,0.70
2022-09-23T04:41:38.092Z,0.70
2022-09-23T04:44:25.672Z,0.63
2022-09-23T04:47:12.875Z,0.90
2022-09-23T04:50:00.727Z,0.80
2022-09-23T04:52:49.677Z,0.80
2022-09-23T04:55:38.229Z,0.65
2022-09-23T04:58:29.125Z,0.63
2022-09-23T05:01:17.747Z,0.85
2022-09-23T05:04:06.096Z,0.80
2022-09-23T05:07:03.487Z,0.77
2022-09-23T05:09:51.329Z,0.80
2022-09-23T05:12:40.047Z,0.98
2022-09-23T05:15:27.399Z,1.00
2022-09-23T05:18:18.973Z,0.63
2022-09-23T05:21:08.204Z,0.85
2022-09-23T05:23:56.605Z,0.93
2022-09-23T05:26:44.110Z,0.55
2022-09-23T05:29:32.626Z,0.90
2022-09-23T05:32:20.057Z,0.75
2022-09-23T05:35:07.952Z,1.00
2022-09-23T05:37:57.017Z,0.70
2022-09-23T05:40:44.566Z,0.93
2022-09-23T05:43:32.014Z,0.73
2022-09-23T05:46:22.564Z,0.73
2022-09-23T05:49:10.044Z,0.73
2022-09-23T05:51:57.152Z,0.50
2022-09-23T05:54:44.771Z,0.90
2022-09-23T05:57:33.680Z,0.82
2022-09-23T06:00:21.185Z,0.30
2022-09-23T06:03:13.751Z,0.70
2022-09-23T06:06:02.986Z,0.50
2022-09-23T06:08:50.490Z,0.57
2022-09-23T06:11:38.273Z,0.50
2022-09-23T06:14:28.777Z,0.90
2022-09-23T06:17:16.567Z,0.52
2022-09-23T06:20:05.538Z,0.50
2022-09-23T06:22:55.378Z,0.80
2022-09-23T06:25:43.778Z,0.88
2022-09-23T06:28:32.530Z,0.70
2022-09-23T06:31:20.050Z,0.88
2022-09-23T06:34:12.440Z,0.85
2022-09-23T06:37:14.259Z,0.70
2022-09-23T06:40:06.986Z,1.00
2022-09-23T06:42:59.576Z,0.90
2022-09-23T06:45:46.835Z,0.65
2022-09-23T06:48:35.503Z,1.23
2022-09-23T06:51:22.739Z,0.70
2022-09-23T06:54:12.124Z,0.93
2022-09-23T06:56:59.508Z,1.20
2022-09-23T06:59:46.929Z,0.77
2022-09-23T07:02:36.942Z,0.90
2022-09-23T07:05:23.970Z,0.80
2022-09-23T07:08:11.355Z,0.75
2022-09-23T07:11:01.796Z,0.60
2022-09-23T07:13:52.387Z,0.90
2022-09-23T07:16:39.998Z,0.90
2022-09-23T07:19:27.165Z,0.70
2022-09-23T07:22:16.581Z,0.70
2022-09-23T07:25:04.529Z,0.60
2022-09-23T07:27:56.094Z,0.52
2022-09-23T07:30:55.983Z,0.82
2022-09-23T07:33:45.924Z,0.70
2022-09-23T07:36:37.413Z,0.60
2022-09-23T07:39:24.933Z,0.77
2022-09-23T07:42:13.324Z,0.80
2022-09-23T07:45:02.174Z,0.90
2022-09-23T07:47:51.850Z,0.93
2022-09-23T07:50:40.522Z,0.90
2022-09-23T07:53:31.867Z,0.63
2022-09-23T07:56:19.817Z,0.80
2022-09-23T07:59:09.010Z,0.70
2022-09-23T08:01:58.134Z,0.77
2022-09-23T08:04:46.271Z,2.00
2022-09-23T08:07:34.398Z,0.67
2022-09-23T08:10:21.820Z,0.93
2022-09-23T08:13:08.818Z,0.82
2022-09-23T08:15:56.160Z,0.77
2022-09-23T08:18:47.032Z,0.60
2022-09-23T08:21:34.411Z,0.80
2022-09-23T08:24:24.289Z,0.75
2022-09-23T08:27:12.706Z,0.60
2022-09-23T08:29:59.889Z,0.63
2022-09-23T08:32:47.278Z,0.90
2022-09-23T08:35:36.092Z,0.68
2022-09-23T08:38:23.120Z,1.00
2022-09-23T08:41:16.252Z,0.90
2022-09-23T08:44:04.733Z,1.00
2022-09-23T08:46:56.635Z,0.80
2022-09-23T08:49:49.889Z,0.70
2022-09-23T08:52:44.263Z,0.77
2022-09-23T08:55:34.523Z,0.70
2022-09-23T08:58:28.870Z,1.15
2022-09-23T09:01:20.514Z,0.80
2022-09-23T09:04:16.340Z,1.00
2022-09-23T09:07:31.701Z,0.80
2022-09-23T09:10:19.150Z,0.60
2022-09-23T09:13:07.881Z,0.93
2022-09-23T09:16:01.622Z,0.85
2022-09-23T09:18:52.437Z,0.77
2022-09-23T09:21:42.652Z,0.70
2022-09-23T09:24:37.036Z,0.70
2022-09-23T09:27:26.305Z,0.57
2022-09-23T09:30:14.683Z,0.50
2022-09-23T09:33:06.911Z,0.70
2022-09-23T09:36:03.148Z,0.45
2022-09-23T09:38:51.272Z,0.85
2022-09-23T09:41:39.155Z,0.77
2022-09-23T09:44:31.984Z,0.73
2022-09-23T09:47:28.492Z,0.63
2022-09-23T09:50:19.201Z,0.60
2022-09-23T09:53:16.707Z,0.88
2022-09-23T09:56:05.958Z,0.45
2022-09-23T09:58:54.449Z,0.50
2022-09-23T10:01:43.054Z,0.40
2022-09-23T10:04:36.870Z,0.68
2022-09-23T10:07:27.399Z,0.57
2022-09-23T10:10:32.256Z,0.50
2022-09-23T10:13:24.141Z,0.70
2022-09-23T10:16:11.872Z,0.60
2022-09-23T10:19:01.586Z,0.50
2022-09-23T10:21:54.009Z,0.40
2022-09-23T10:24:42.848Z,0.47
2022-09-23T10:27:32.482Z,0.70
2022-09-23T10:30:22.767Z,0.57
2022-09-23T10:33:27.958Z,0.57
2022-09-23T10:36:17.858Z,0.50
2022-09-23T10:39:20.106Z,0.50
2022-09-23T10:42:26.881Z,0.68
2022-09-23T10:45:43.323Z,0.90
2022-09-23T10:48:35.951Z,0.50
2022-09-23T10:51:32.121Z,0.52
2022-09-23T10:54:25.806Z,0.63
2022-09-23T10:57:32.037Z,0.50
2022-09-23T11:00:23.192Z,0.40
2022-09-23T11:03:21.630Z,0.40
2022-09-23T11:06:14.679Z,0.55
2022-09-23T11:09:12.427Z,0.60
2022-09-23T11:12:08.434Z,0.70
2022-09-23T11:15:03.359Z,0.47
2022-09-23T11:18:15.924Z,0.63
2022-09-23T11:21:07.470Z,0.80
2022-09-23T11:24:04.842Z,0.68
2022-09-23T11:26:59.845Z,0.57
2022-09-23T11:30:02.055Z,0.50
2022-09-23T11:32:56.539Z,0.55
2022-09-23T11:35:47.712Z,0.30
2022-09-23T11:38:38.571Z,0.40
2022-09-23T11:41:28.189Z,0.40
2022-09-23T11:44:19.488Z,0.43
2022-09-23T11:47:08.861Z,0.60
2022-09-23T11:50:01.280Z,0.40
2022-09-23T11:52:51.955Z,0.50
2022-09-23T11:55:55.396Z,0.82
2022-09-23T11:58:53.500Z,0.73
2022-09-23T12:01:47.825Z,0.47
2022-09-23T12:04:38.297Z,0.52
2022-09-23T12:07:30.895Z,0.50
2022-09-23T12:10:20.290Z,0.50
2022-09-23T12:13:09.676Z,0.40
2022-09-23T12:16:05.614Z,0.50
2022-09-23T12:19:01.064Z,0.50
2022-09-23T12:21:56.526Z,0.60
2022-09-23T12:24:50.883Z,0.80
2022-09-23T12:27:39.392Z,0.85
2022-09-23T12:30:31.234Z,0.50
2022-09-23T12:33:24.519Z,0.70
2022-09-23T12:36:13.925Z,0.70
2022-09-23T12:39:03.762Z,0.40
2022-09-23T12:41:51.819Z,0.52
2022-09-23T12:44:41.220Z,0.60
2022-09-23T12:47:32.532Z,0.45
2022-09-23T12:50:37.705Z,0.57
2022-09-23T12:53:45.756Z,1.00
2022-09-23T12:56:47.705Z,0.30
2022-09-23T12:59:49.961Z,0.32
2022-09-23T13:02:40.822Z,0.50
2022-09-23T13:05:46.184Z,0.35
2022-09-23T13:08:34.278Z,0.80
2022-09-23T13:11:23.738Z,0.63
2022-09-23T13:14:12.916Z,0.38
2022-09-23T13:17:00.460Z,0.30
2022-09-23T13:19:59.210Z,0.75
2022-09-23T13:23:06.034Z,0.45
2022-09-23T13:25:54.767Z,0.80
2022-09-23T13:28:45.326Z,0.70
2022-09-23T13:31:32.341Z,0.40
2022-09-23T13:34:22.504Z,0.55
2022-09-23T13:37:22.734Z,0.73
2022-09-23T13:40:19.534Z,0.60
2022-09-23T13:43:08.232Z,0.73
2022-09-23T13:45:56.531Z,0.70
2022-09-23T13:48:46.402Z,0.73
2022-09-23T13:51:35.060Z,0.52
2022-09-23T13:54:34.003Z,0.50
2022-09-23T13:57:30.314Z,0.50
2022-09-23T14:00:21.278Z,0.40
2022-09-23T14:03:28.118Z,0.43
2022-09-23T14:06:17.290Z,0.63
2022-09-23T14:09:04.264Z,0.55
2022-09-23T14:11:53.381Z,0.90
2022-09-23T14:14:42.098Z,0.63
2022-09-23T14:17:29.644Z,0.40
2022-09-23T14:20:17.956Z,0.50
2022-09-23T14:23:06.915Z,0.63
2022-09-23T14:25:55.036Z,0.45
2022-09-23T14:28:43.687Z,0.57
2022-09-23T14:31:32.918Z,0.50
2022-09-23T14:34:38.965Z,0.60
2022-09-23T14:37:46.485Z,0.70
2022-09-23T14:40:34.133Z,0.52
2022-09-23T14:43:24.507Z,0.70
2022-09-23T14:46:18.252Z,0.47
2022-09-23T14:49:07.524Z,0.57
2022-09-23T14:51:56.105Z,0.52
2022-09-23T14:54:45.414Z,0.65
2022-09-23T14:57:32.905Z,0.43
2022-09-23T15:00:20.865Z,0.60
2022-09-23T15:03:15.963Z,0.55
2022-09-23T15:06:09.294Z,0.88
2022-09-23T15:08:57.373Z,0.50
2022-09-23T15:11:44.616Z,0.60
2022-09-23T15:14:40.690Z,0.40
2022-09-23T15:17:32.572Z,0.90
2022-09-23T15:20:23.513Z,0.88
2022-09-23T15:23:33.086Z,1.20
2022-09-23T15:26:21.253Z,1.67
2022-09-23T15:29:09.670Z,1.75
2022-09-23T15:31:57.894Z,1.40
2022-09-23T15:34:45.144Z,1.85
2022-09-23T15:37:36.360Z,1.98
2022-09-23T15:40:24.564Z,2.15
2022-09-23T15:43:20.201Z,1.27
2022-09-23T15:46:09.956Z,1.42
2022-09-23T15:48:58.984Z,2.53
2022-09-23T15:51:46.568Z,2.08
2022-09-23T15:54:34.949Z,2.15
2022-09-23T15:57:22.345Z,1.37
2022-09-23T16:00:12.358Z,2.28
2022-09-23T16:03:01.121Z,2.13
2022-09-23T16:05:49.144Z,1.13
2022-09-23T16:08:36.293Z,1.85
2022-09-23T16:11:26.931Z,1.52
2022-09-23T16:14:15.961Z,1.80
2022-09-23T16:17:03.572Z,2.00
2022-09-23T16:19:50.965Z,1.60
2022-09-23T16:22:40.961Z,2.10
2022-09-23T16:25:30.814Z,2.53
2022-09-23T16:28:20.755Z,2.63
2022-09-23T16:31:08.310Z,2.33
2022-09-23T16:33:56.572Z,1.95
2022-09-23T16:36:45.199Z,3.20
2022-09-23T16:39:32.734Z,3.30
2022-09-23T16:42:19.807Z,3.00
2022-09-23T16:45:12.295Z,2.55
2022-09-23T16:48:00.040Z,3.13
2022-09-23T16:50:47.765Z,3.10
2022-09-23T16:53:36.402Z,2.58
2022-09-23T16:56:28.434Z,3.15
2022-09-23T16:59:16.481Z,3.10
2022-09-23T17:02:24.411Z,2.20
2022-09-23T17:05:20.293Z,1.80
2022-09-23T17:08:10.627Z,1.50
2022-09-23T17:10:59.169Z,1.27
2022-09-23T17:13:48.721Z,1.00
2022-09-23T17:16:36.674Z,0.70
2022-09-23T17:19:27.450Z,0.70
2022-09-23T17:22:15.267Z,0.90
2022-09-23T17:25:07.932Z,0.90
2022-09-23T17:27:56.285Z,0.50
2022-09-23T17:30:43.614Z,0.63
2022-09-23T17:33:31.664Z,0.63
2022-09-23T17:36:20.726Z,0.60
2022-09-23T17:39:07.965Z,0.95
2022-09-23T17:41:56.080Z,0.90
2022-09-23T17:44:43.175Z,0.75
2022-09-23T17:47:33.372Z,0.93
2022-09-23T17:50:20.824Z,0.73
2022-09-23T17:53:09.551Z,1.00
2022-09-23T17:55:57.210Z,0.68
2022-09-23T17:58:46.027Z,0.82
2022-09-23T18:01:35.074Z,1.13
2022-09-23T18:04:22.897Z,1.27
2022-09-23T18:07:10.295Z,1.52
2022-09-23T18:10:00.555Z,1.00
2022-09-23T18:12:49.405Z,1.02
2022-09-23T18:15:40.346Z,0.93
2022-09-23T18:18:27.963Z,0.73
2022-09-23T18:21:15.640Z,0.70
2022-09-23T18:24:21.632Z,1.20
2022-09-23T18:27:11.863Z,0.90
2022-09-23T18:29:59.591Z,0.93
2022-09-23T18:32:47.123Z,0.83
2022-09-23T18:35:34.340Z,0.98
2022-09-23T18:38:21.664Z,1.20
2022-09-23T18:41:11.959Z,0.50
2022-09-23T18:44:00.612Z,0.90
2022-09-23T18:46:48.039Z,0.80
2022-09-23T18:49:52.885Z,0.70
2022-09-23T18:52:39.860Z,0.90
2022-09-23T18:55:27.401Z,1.23
2022-09-23T18:58:15.589Z,1.38
2022-09-23T19:01:08.680Z,1.10
2022-09-23T19:03:56.772Z,0.80
2022-09-23T19:06:45.509Z,1.38
2022-09-23T19:09:32.657Z,1.30
2022-09-23T19:12:24.797Z,0.97
2022-09-23T19:15:12.235Z,1.00
2022-09-23T19:18:01.019Z,1.30
2022-09-23T19:20:52.515Z,1.40
2022-09-23T19:23:39.368Z,1.00
2022-09-23T19:26:27.561Z,1.17
2022-09-23T19:29:15.684Z,1.23
2022-09-23T19:32:02.920Z,1.17
2022-09-23T19:34:51.537Z,1.17
2022-09-23T19:37:38.841Z,0.98
2022-09-23T19:40:26.208Z,0.95
2022-09-23T19:43:14.398Z,2.37
2022-09-23T19:46:01.473Z,2.00
2022-09-23T19:48:49.019Z,1.80
2022-09-23T19:51:38.699Z,1.65
2022-09-23T19:54:30.484Z,1.55
2022-09-23T19:57:17.883Z,1.38
2022-09-23T20:00:06.223Z,1.55
2022-09-23T20:02:59.485Z,1.90
2022-09-23T20:05:46.317Z,1.70
2022-09-23T20:08:38.166Z,1.73
2022-09-23T20:11:28.671Z,1.30
2022-09-23T20:14:17.303Z,1.50
2022-09-23T20:17:04.587Z,1.13
2022-09-23T20:19:51.832Z,1.63
2022-09-23T20:22:39.365Z,2.08
2022-09-23T20:25:27.856Z,1.30
2022-09-23T20:28:13.760Z,1.23
2022-09-23T20:31:01.135Z,1.20
2022-09-23T20:33:51.761Z,0.98
2022-09-23T20:36:40.936Z,1.03
2022-09-23T20:39:29.071Z,1.40
2022-09-23T20:42:18.290Z,1.73
2022-09-23T20:45:07.355Z,1.40
2022-09-23T20:47:55.899Z,2.28
2022-09-23T20:50:43.363Z,2.05
2022-09-23T20:53:32.317Z,1.25
2022-09-23T20:56:20.037Z,1.65
2022-09-23T20:59:09.196Z,1.75
2022-09-23T21:01:59.586Z,1.35
2022-09-23T21:04:47.159Z,1.15
2022-09-23T21:07:34.361Z,1.10
2022-09-23T21:10:22.729Z,1.42
2022-09-23T21:13:09.924Z,1.42
2022-09-23T21:15:58.296Z,1.30
2022-09-23T21:18:45.543Z,1.40
2022-09-23T21:21:33.315Z,1.25
2022-09-23T21:27:29.587Z,1.55
2022-09-23T21:30:17.439Z,1.23
2022-09-23T21:33:06.155Z,1.13
2022-09-23T21:35:55.422Z,1.30
2022-09-23T21:38:46.117Z,0.85
2022-09-23T21:41:34.215Z,0.98
2022-09-23T21:44:21.553Z,1.40
2022-09-23T21:47:08.708Z,1.20
2022-09-23T21:49:57.199Z,0.93
2022-09-23T21:52:44.912Z,1.20
2022-09-23T21:55:32.350Z,1.00
2022-09-23T21:58:19.764Z,1.20
2022-09-23T22:01:11.362Z,1.25
2022-09-23T22:03:59.190Z,1.00
2022-09-23T22:06:49.018Z,0.95
2022-09-23T22:09:36.556Z,1.30
2022-09-23T22:12:24.097Z,1.10
2022-09-23T22:15:13.670Z,1.08
2022-09-23T22:18:00.833Z,1.02
2022-09-23T22:20:54.810Z,1.00
2022-09-23T22:23:43.929Z,1.00
2022-09-23T22:26:35.234Z,1.20
2022-09-23T22:29:39.822Z,1.25
2022-09-23T22:32:43.643Z,1.23
2022-09-23T22:35:32.455Z,1.20
2022-09-23T22:38:20.177Z,0.70
2022-09-23T22:41:23.785Z,1.00
2022-09-23T22:44:10.892Z,1.85
2022-09-23T22:46:59.379Z,1.17
2022-09-23T22:49:47.453Z,1.70
2022-09-23T22:52:34.877Z,0.90
2022-09-23T22:55:21.811Z,1.02
2022-09-23T22:58:30.670Z,1.30
2022-09-23T23:01:17.613Z,1.35
2022-09-23T23:04:05.215Z,1.25
2022-09-23T23:06:52.662Z,1.00
2022-09-23T23:09:39.729Z,1.05
2022-09-23T23:12:26.548Z,1.02
2022-09-23T23:15:15.718Z,0.90
2022-09-23T23:18:02.821Z,0.90
2022-09-23T23:20:49.841Z,1.17
2022-09-23T23:23:44.125Z,1.20
2022-09-23T23:26:35.347Z,0.77
2022-09-23T23:29:23.577Z,1.20
2022-09-23T23:32:12.075Z,1.02
2022-09-23T23:34:59.501Z,1.52
2022-09-23T23:37:46.680Z,1.08
2022-09-23T23:40:38.304Z,1.00
2022-09-23T23:43:25.363Z,1.20
2022-09-23T23:46:12.755Z,1.38
2022-09-23T23:49:01.598Z,1.30
2022-09-23T23:51:51.239Z,1.10
2022-09-23T23:54:38.490Z,1.10
2022-09-23T23:57:25.883Z,0.90
